createdAt,value
2023-04-19T00:00:16.576Z,100.00
2023-04-19T00:02:44.738Z,100.00
2023-04-19T00:05:15.953Z,100.00
2023-04-19T00:07:44.064Z,100.00
2023-04-19T00:10:12.342Z,100.00
2023-04-19T00:12:41.824Z,100.00
2023-04-19T00:15:10.729Z,100.00
2023-04-19T00:17:38.794Z,100.00
2023-04-19T00:20:08.388Z,100.00
2023-04-19T00:22:36.821Z,100.00
2023-04-19T00:25:05.231Z,100.00
2023-04-19T00:27:33.593Z,100.00
2023-04-19T00:30:03.293Z,100.00
2023-04-19T00:32:31.464Z,100.00
2023-04-19T00:34:59.662Z,100.00
2023-04-19T00:37:27.667Z,100.00
2023-04-19T00:39:55.628Z,100.00
2023-04-19T00:42:23.685Z,100.00
2023-04-19T00:44:51.800Z,100.00
2023-04-19T00:47:21.520Z,100.00
2023-04-19T00:49:49.580Z,100.00
2023-04-19T00:52:17.683Z,100.00
2023-04-19T00:54:46.780Z,100.00
2023-04-19T00:57:15.592Z,100.00
2023-04-19T00:59:44.115Z,100.00
2023-04-19T01:02:12.333Z,100.00
2023-04-19T01:04:41.877Z,100.00
2023-04-19T01:07:10.550Z,100.00
2023-04-19T01:09:42.054Z,100.00
2023-04-19T01:12:10.157Z,100.00
2023-04-19T01:14:38.227Z,100.00
2023-04-19T01:17:06.536Z,100.00
2023-04-19T01:19:36.547Z,100.00
2023-04-19T01:22:07.164Z,100.00
2023-04-19T01:24:36.633Z,100.00
2023-04-19T01:27:04.800Z,100.00
2023-04-19T01:29:32.917Z,100.00
2023-04-19T01:32:01.193Z,100.00
2023-04-19T01:34:29.430Z,100.00
2023-04-19T01:36:58.024Z,100.00
2023-04-19T01:39:27.557Z,100.00
2023-04-19T01:41:57.010Z,100.00
2023-04-19T01:44:25.391Z,100.00
2023-04-19T01:46:53.785Z,100.00
2023-04-19T01:49:22.091Z,100.00
2023-04-19T01:51:50.642Z,100.00
2023-04-19T01:54:18.732Z,100.00
2023-04-19T01:56:46.827Z,100.00
2023-04-19T01:59:16.530Z,100.00
2023-04-19T02:01:44.746Z,100.00
2023-04-19T02:04:13.155Z,100.00
2023-04-19T02:06:41.370Z,100.00
2023-04-19T02:09:09.589Z,100.00
2023-04-19T02:11:37.672Z,100.00
2023-04-19T02:14:06.298Z,100.00
2023-04-19T02:16:36.351Z,100.00
2023-04-19T02:19:05.001Z,100.00
2023-04-19T02:21:33.034Z,100.00
2023-04-19T02:24:01.214Z,100.00
2023-04-19T02:26:29.234Z,100.00
2023-04-19T02:28:57.267Z,100.00
2023-04-19T02:31:25.438Z,100.00
2023-04-19T02:33:55.984Z,100.00
2023-04-19T02:36:24.171Z,100.00
2023-04-19T02:38:52.298Z,100.00
2023-04-19T02:41:20.689Z,100.00
2023-04-19T02:43:48.849Z,100.00
2023-04-19T02:46:16.893Z,100.00
2023-04-19T02:48:44.962Z,100.00
2023-04-19T02:51:18.489Z,100.00
2023-04-19T02:53:46.594Z,100.00
2023-04-19T02:56:14.657Z,100.00
2023-04-19T02:58:42.765Z,100.00
2023-04-19T03:01:11.213Z,100.00
2023-04-19T03:03:39.404Z,100.00
2023-04-19T03:06:07.859Z,100.00
2023-04-19T03:08:37.469Z,100.00
2023-04-19T03:11:05.604Z,100.00
2023-04-19T03:13:33.648Z,100.00
2023-04-19T03:16:01.835Z,100.00
2023-04-19T03:18:30.281Z,100.00
2023-04-19T03:20:58.486Z,100.00
2023-04-19T03:23:27.552Z,100.00
2023-04-19T03:25:57.551Z,100.00
2023-04-19T03:28:27.074Z,100.00
2023-04-19T03:30:55.977Z,100.00
2023-04-19T03:33:24.128Z,100.00
2023-04-19T03:35:52.743Z,100.00
2023-04-19T03:38:21.464Z,100.00
2023-04-19T03:40:50.187Z,100.00
2023-04-19T03:43:19.740Z,100.00
2023-04-19T03:45:47.877Z,100.00
2023-04-19T03:48:15.925Z,100.00
2023-04-19T03:50:44.030Z,100.00
2023-04-19T03:53:12.194Z,100.00
2023-04-19T03:55:40.596Z,100.00
2023-04-19T03:58:08.678Z,100.00
2023-04-19T04:00:39.102Z,100.00
2023-04-19T04:03:07.363Z,100.00
2023-04-19T04:05:36.674Z,100.00
2023-04-19T04:08:05.005Z,100.00
2023-04-19T04:10:37.043Z,100.00
2023-04-19T04:13:05.187Z,100.00
2023-04-19T04:15:33.262Z,100.00
2023-04-19T04:18:02.986Z,100.00
2023-04-19T04:20:31.785Z,100.00
2023-04-19T04:22:59.884Z,100.00
2023-04-19T04:25:29.042Z,100.00
2023-04-19T04:27:57.286Z,100.00
2023-04-19T04:30:27.951Z,100.00
2023-04-19T04:32:58.223Z,100.00
2023-04-19T04:35:28.039Z,100.00
2023-04-19T04:37:56.638Z,100.00
2023-04-19T04:40:25.084Z,100.00
2023-04-19T04:42:54.330Z,100.00
2023-04-19T04:45:22.784Z,100.00
2023-04-19T04:50:21.542Z,100.00
2023-04-19T04:52:52.367Z,100.00
2023-04-19T04:55:20.828Z,100.00
2023-04-19T04:57:49.031Z,100.00
2023-04-19T05:00:17.830Z,100.00
2023-04-19T05:02:46.377Z,100.00
2023-04-19T05:05:14.400Z,100.00
2023-04-19T05:07:42.715Z,100.00
2023-04-19T05:10:12.655Z,100.00
2023-04-19T05:12:41.406Z,100.00
2023-04-19T05:15:12.064Z,100.00
2023-04-19T05:17:40.232Z,100.00
2023-04-19T05:20:09.401Z,100.00
2023-04-19T05:22:37.894Z,100.00
2023-04-19T05:25:07.554Z,100.00
2023-04-19T05:27:37.133Z,100.00
2023-04-19T05:30:06.253Z,100.00
2023-04-19T05:32:34.518Z,100.00
2023-04-19T05:35:02.644Z,100.00
2023-04-19T05:37:30.692Z,100.00
2023-04-19T05:39:59.484Z,100.00
2023-04-19T05:42:27.735Z,100.00
2023-04-19T05:44:57.680Z,100.00
2023-04-19T05:47:25.942Z,100.00
2023-04-19T05:49:54.225Z,100.00
2023-04-19T05:52:24.490Z,100.00
2023-04-19T05:54:52.832Z,100.00
2023-04-19T05:57:20.899Z,100.00
2023-04-19T05:59:48.987Z,100.00
2023-04-19T06:02:18.736Z,100.00
2023-04-19T06:04:47.200Z,100.00
2023-04-19T06:07:27.560Z,100.00
2023-04-19T06:09:59.840Z,100.00
2023-04-19T06:12:27.987Z,100.00
2023-04-19T06:14:57.456Z,100.00
2023-04-19T06:17:26.997Z,100.00
2023-04-19T06:19:55.856Z,100.00
2023-04-19T06:22:24.013Z,100.00
2023-04-19T06:24:52.095Z,100.00
2023-04-19T06:27:20.310Z,100.00
2023-04-19T06:29:49.877Z,100.00
2023-04-19T06:32:19.552Z,100.00
2023-04-19T06:34:49.110Z,100.00
2023-04-19T06:37:17.229Z,100.00
2023-04-19T06:39:45.408Z,100.00
2023-04-19T06:42:13.611Z,100.00
2023-04-19T06:44:41.641Z,100.00
2023-04-19T06:47:09.798Z,100.00
2023-04-19T06:49:37.839Z,100.00
2023-04-19T06:52:07.290Z,100.00
2023-04-19T06:54:35.459Z,100.00
2023-04-19T06:57:03.736Z,100.00
2023-04-19T06:59:32.596Z,100.00
2023-04-19T07:02:00.991Z,100.00
2023-04-19T07:04:29.361Z,100.00
2023-04-19T07:06:57.577Z,100.00
2023-04-19T07:09:27.544Z,100.00
2023-04-19T07:11:55.964Z,100.00
2023-04-19T07:14:25.353Z,100.00
2023-04-19T07:16:54.120Z,100.00
2023-04-19T07:19:22.941Z,100.00
2023-04-19T07:21:51.644Z,100.00
2023-04-19T07:24:19.887Z,100.00
2023-04-19T07:26:49.416Z,100.00
2023-04-19T07:29:17.771Z,100.00
2023-04-19T07:31:46.268Z,100.00
2023-04-19T07:34:14.780Z,100.00
2023-04-19T07:36:43.000Z,100.00
2023-04-19T07:39:11.177Z,100.00
2023-04-19T07:41:39.712Z,100.00
2023-04-19T07:44:10.473Z,100.00
2023-04-19T07:46:38.955Z,100.00
2023-04-19T07:49:07.097Z,100.00
2023-04-19T07:51:35.058Z,100.00
2023-04-19T07:54:03.955Z,100.00
2023-04-19T07:56:32.167Z,100.00
2023-04-19T07:59:08.456Z,100.00
2023-04-19T08:01:38.941Z,100.00
2023-04-19T08:04:08.111Z,100.00
2023-04-19T08:06:39.861Z,100.00
2023-04-19T08:09:08.489Z,100.00
2023-04-19T08:11:36.486Z,100.00
2023-04-19T08:14:11.901Z,100.00
2023-04-19T08:19:18.820Z,100.00
2023-04-19T08:21:46.967Z,100.00
2023-04-19T08:24:15.244Z,100.00
2023-04-19T08:26:44.004Z,100.00
2023-04-19T08:29:13.224Z,100.00
2023-04-19T08:31:44.902Z,100.00
2023-04-19T08:34:14.342Z,100.00
2023-04-19T08:39:21.156Z,100.00
2023-04-19T08:42:06.787Z,100.00
2023-04-19T08:44:48.977Z,100.00
2023-04-19T08:47:32.185Z,100.00
2023-04-19T08:52:47.849Z,100.00
2023-04-19T08:55:22.891Z,100.00
2023-04-19T08:57:50.929Z,100.00
2023-04-19T09:00:20.162Z,100.00
2023-04-19T09:02:49.899Z,100.00
2023-04-19T09:05:21.196Z,100.00
2023-04-19T09:07:49.772Z,100.00
2023-04-19T09:10:19.979Z,100.00
2023-04-19T09:13:02.189Z,100.00
2023-04-19T09:15:40.912Z,100.00
2023-04-19T09:18:10.916Z,100.00
2023-04-19T09:20:42.070Z,100.00
2023-04-19T09:23:12.842Z,100.00
2023-04-19T09:26:05.845Z,100.00
2023-04-19T09:28:29.745Z,100.00
2023-04-19T09:31:07.004Z,97.92
2023-04-19T09:33:40.136Z,99.63
2023-04-19T09:36:10.914Z,96.03
2023-04-19T09:38:48.261Z,100.00
2023-04-19T09:41:17.294Z,99.47
2023-04-19T09:44:05.598Z,99.17
2023-04-19T09:46:35.236Z,100.00
2023-04-19T09:49:25.062Z,98.98
2023-04-19T09:52:07.372Z,100.00
2023-04-19T09:54:35.910Z,100.00
2023-04-19T09:57:04.479Z,97.55
2023-04-19T09:59:32.600Z,98.78
2023-04-19T10:02:02.281Z,95.74
2023-04-19T10:04:44.007Z,99.36
2023-04-19T10:07:30.280Z,95.28
2023-04-19T10:15:07.292Z,91.81
2023-04-19T10:17:36.121Z,93.24
2023-04-19T10:20:09.287Z,93.23
2023-04-19T10:22:39.829Z,90.12
2023-04-19T10:25:13.309Z,89.25
2023-04-19T10:27:48.957Z,85.73
2023-04-19T10:30:21.724Z,87.52
2023-04-19T10:32:56.707Z,89.24
2023-04-19T10:35:26.439Z,88.79
2023-04-19T10:38:07.488Z,89.13
2023-04-19T10:41:01.007Z,88.63
2023-04-19T10:43:30.777Z,88.20
2023-04-19T10:46:02.647Z,83.13
2023-04-19T10:48:43.924Z,85.43
2023-04-19T10:51:17.205Z,84.64
2023-04-19T10:53:48.727Z,86.50
2023-04-19T10:56:17.919Z,82.84
2023-04-19T10:59:13.455Z,85.41
2023-04-19T11:01:43.575Z,85.12
2023-04-19T11:04:13.071Z,82.68
2023-04-19T11:07:01.424Z,80.28
2023-04-19T11:09:34.347Z,83.94
2023-04-19T11:12:04.720Z,81.80
2023-04-19T11:14:34.981Z,86.19
2023-04-19T11:17:16.080Z,83.61
2023-04-19T11:19:46.054Z,85.04
2023-04-19T11:22:14.208Z,83.87
2023-04-19T11:24:48.426Z,75.74
2023-04-19T11:27:16.981Z,68.81
2023-04-19T11:29:45.363Z,68.65
2023-04-19T11:32:13.481Z,69.05
2023-04-19T11:34:42.362Z,64.76
2023-04-19T11:37:12.273Z,62.38
2023-04-19T11:39:48.974Z,63.75
2023-04-19T11:42:21.336Z,66.11
2023-04-19T11:44:57.738Z,65.78
2023-04-19T11:47:26.200Z,68.66
2023-04-19T11:49:56.543Z,67.93
2023-04-19T11:52:26.618Z,69.16
2023-04-19T11:54:56.279Z,70.29
2023-04-19T11:57:31.508Z,70.22
2023-04-19T12:00:11.562Z,71.32
2023-04-19T12:02:42.236Z,70.78
2023-04-19T12:05:12.522Z,72.92
2023-04-19T12:08:05.138Z,75.07
2023-04-19T12:10:35.922Z,76.99
2023-04-19T12:13:18.224Z,79.02
2023-04-19T12:15:49.240Z,79.91
2023-04-19T12:18:17.621Z,82.30
2023-04-19T12:20:47.913Z,80.53
2023-04-19T12:23:16.785Z,83.14
2023-04-19T12:25:48.486Z,91.83
2023-04-19T12:28:17.622Z,100.00
2023-04-19T12:30:45.821Z,100.00
2023-04-19T12:33:13.984Z,100.00
2023-04-19T12:35:43.092Z,100.00
2023-04-19T12:38:11.417Z,100.00
2023-04-19T12:40:39.583Z,100.00
2023-04-19T12:43:09.255Z,99.22
2023-04-19T12:45:37.499Z,100.00
2023-04-19T12:48:07.250Z,100.00
2023-04-19T12:50:35.382Z,100.00
2023-04-19T12:53:03.520Z,100.00
2023-04-19T12:55:31.859Z,100.00
2023-04-19T12:57:59.946Z,100.00
2023-04-19T13:00:30.273Z,100.00
2023-04-19T13:02:58.597Z,100.00
2023-04-19T13:05:26.853Z,100.00
2023-04-19T13:07:54.939Z,100.00
2023-04-19T13:10:23.093Z,100.00
2023-04-19T13:12:51.631Z,100.00
2023-04-19T13:15:20.076Z,100.00
2023-04-19T13:17:49.874Z,100.00
2023-04-19T13:20:19.796Z,100.00
2023-04-19T13:22:48.603Z,100.00
2023-04-19T13:25:16.713Z,100.00
2023-04-19T13:27:46.532Z,100.00
2023-04-19T13:30:16.432Z,100.00
2023-04-19T13:32:45.010Z,100.00
2023-04-19T13:35:14.557Z,100.00
2023-04-19T13:37:44.573Z,100.00
2023-04-19T13:40:19.466Z,100.00
2023-04-19T13:42:48.218Z,100.00
2023-04-19T13:45:16.428Z,100.00
2023-04-19T13:47:44.624Z,100.00
2023-04-19T13:50:15.154Z,100.00
2023-04-19T13:52:43.685Z,99.96
2023-04-19T13:55:11.813Z,98.04
2023-04-19T13:57:40.350Z,98.91
2023-04-19T14:00:09.812Z,100.00
2023-04-19T14:02:38.179Z,100.00
2023-04-19T14:05:07.325Z,100.00
2023-04-19T14:07:37.145Z,100.00
2023-04-19T14:10:07.089Z,97.86
2023-04-19T14:12:35.184Z,98.58
2023-04-19T14:15:03.370Z,99.69
2023-04-19T14:17:31.600Z,100.00
2023-04-19T14:19:59.858Z,100.00
2023-04-19T14:22:27.953Z,100.00
2023-04-19T14:24:57.549Z,100.00
2023-04-19T14:27:26.429Z,100.00
2023-04-19T14:29:54.791Z,100.00
2023-04-19T14:32:26.637Z,100.00
2023-04-19T14:34:56.239Z,100.00
2023-04-19T14:37:25.265Z,100.00
2023-04-19T14:39:54.059Z,100.00
2023-04-19T14:42:23.638Z,98.46
2023-04-19T14:44:53.227Z,96.95
2023-04-19T14:47:21.903Z,98.79
2023-04-19T14:49:50.676Z,99.42
2023-04-19T14:52:19.021Z,98.60
2023-04-19T14:54:47.279Z,99.71
2023-04-19T14:57:15.695Z,100.00
2023-04-19T14:59:45.613Z,100.00
2023-04-19T15:02:13.943Z,99.81
2023-04-19T15:04:42.537Z,99.24
2023-04-19T15:07:11.185Z,99.88
2023-04-19T15:09:40.338Z,100.00
2023-04-19T15:12:08.611Z,100.00
2023-04-19T15:14:36.599Z,100.00
2023-04-19T15:17:06.518Z,100.00
2023-04-19T15:19:34.726Z,100.00
2023-04-19T15:22:04.172Z,100.00
2023-04-19T15:24:32.594Z,100.00
2023-04-19T15:27:01.693Z,100.00
2023-04-19T15:29:30.500Z,100.00
2023-04-19T15:31:58.552Z,100.00
2023-04-19T15:34:28.786Z,100.00
2023-04-19T15:36:57.706Z,100.00
2023-04-19T15:39:26.300Z,100.00
2023-04-19T15:41:54.628Z,100.00
2023-04-19T15:44:23.749Z,100.00
2023-04-19T15:46:56.434Z,100.00
2023-04-19T15:49:25.501Z,100.00
2023-04-19T15:51:58.811Z,100.00
2023-04-19T15:54:28.921Z,100.00
2023-04-19T15:56:58.534Z,100.00
2023-04-19T15:59:26.655Z,100.00
2023-04-19T16:01:56.112Z,100.00
2023-04-19T16:04:24.385Z,100.00
2023-04-19T16:06:52.519Z,100.00
2023-04-19T16:09:23.217Z,100.00
2023-04-19T16:11:51.714Z,100.00
2023-04-19T16:14:19.791Z,100.00
2023-04-19T16:16:49.457Z,100.00
2023-04-19T16:19:17.823Z,100.00
2023-04-19T16:21:46.581Z,100.00
2023-04-19T16:24:14.686Z,98.14
2023-04-19T16:26:44.414Z,97.35
2023-04-19T16:29:12.867Z,98.87
2023-04-19T16:31:41.173Z,97.15
2023-04-19T16:34:09.296Z,96.55
2023-04-19T16:36:37.464Z,94.80
2023-04-19T16:39:05.624Z,97.29
2023-04-19T16:41:33.733Z,99.88
2023-04-19T16:44:03.171Z,100.00
2023-04-19T16:46:31.551Z,100.00
2023-04-19T16:48:59.793Z,100.00
2023-04-19T16:51:28.375Z,100.00
2023-04-19T16:53:56.746Z,100.00
2023-04-19T16:56:25.506Z,100.00
2023-04-19T16:58:56.437Z,100.00
2023-04-19T17:01:26.147Z,100.00
2023-04-19T17:03:54.524Z,100.00
2023-04-19T17:06:23.262Z,100.00
2023-04-19T17:08:51.321Z,100.00
2023-04-19T17:11:19.453Z,100.00
2023-04-19T17:13:47.647Z,100.00
2023-04-19T17:16:15.742Z,100.00
2023-04-19T17:18:45.302Z,100.00
2023-04-19T17:21:16.248Z,100.00
2023-04-19T17:23:46.667Z,100.00
2023-04-19T17:26:16.990Z,100.00
2023-04-19T17:28:45.253Z,100.00
2023-04-19T17:31:13.547Z,100.00
2023-04-19T17:33:41.590Z,100.00
2023-04-19T17:36:11.377Z,100.00
2023-04-19T17:38:39.491Z,100.00
2023-04-19T17:41:08.700Z,100.00
2023-04-19T17:43:37.001Z,100.00
2023-04-19T17:46:05.342Z,100.00
2023-04-19T17:48:34.218Z,100.00
2023-04-19T17:51:02.397Z,100.00
2023-04-19T17:53:32.090Z,100.00
2023-04-19T17:56:00.549Z,100.00
2023-04-19T17:58:28.738Z,100.00
2023-04-19T18:00:57.149Z,100.00
2023-04-19T18:03:25.407Z,100.00
2023-04-19T18:05:53.575Z,100.00
2023-04-19T18:08:21.850Z,100.00
2023-04-19T18:10:51.494Z,100.00
2023-04-19T18:13:19.661Z,100.00
2023-04-19T18:15:47.756Z,100.00
2023-04-19T18:18:16.030Z,100.00
2023-04-19T18:20:44.428Z,100.00
2023-04-19T18:23:12.493Z,100.00
2023-04-19T18:25:40.624Z,100.00
2023-04-19T18:28:10.815Z,100.00
2023-04-19T18:30:38.987Z,100.00
2023-04-19T18:33:07.240Z,100.00
2023-04-19T18:35:36.699Z,100.00
2023-04-19T18:38:05.772Z,100.00
2023-04-19T18:40:34.011Z,100.00
2023-04-19T18:43:02.456Z,100.00
2023-04-19T18:45:33.273Z,100.00
2023-04-19T18:48:02.207Z,100.00
2023-04-19T18:50:31.638Z,100.00
2023-04-19T18:53:02.137Z,100.00
2023-04-19T18:55:31.255Z,100.00
2023-04-19T18:58:01.380Z,100.00
2023-04-19T19:00:31.517Z,100.00
2023-04-19T19:03:00.948Z,100.00
2023-04-19T19:05:31.145Z,100.00
2023-04-19T19:07:59.723Z,100.00
2023-04-19T19:10:49.828Z,100.00
2023-04-19T19:13:16.344Z,100.00
2023-04-19T19:15:45.813Z,100.00
2023-04-19T19:18:15.041Z,100.00
2023-04-19T19:20:43.581Z,100.00
2023-04-19T19:23:13.105Z,100.00
2023-04-19T19:25:42.489Z,100.00
2023-04-19T19:28:13.011Z,100.00
2023-04-19T19:30:42.974Z,100.00
2023-04-19T19:33:13.317Z,100.00
2023-04-19T19:35:41.730Z,100.00
2023-04-19T19:38:09.907Z,100.00
2023-04-19T19:40:59.368Z,100.00
2023-04-19T19:43:26.492Z,100.00
2023-04-19T19:45:54.662Z,100.00
2023-04-19T19:48:26.072Z,100.00
2023-04-19T19:51:20.809Z,100.00
2023-04-19T19:53:43.508Z,100.00
2023-04-19T19:56:19.019Z,100.00
2023-04-19T19:58:51.961Z,100.00
2023-04-19T20:01:22.646Z,100.00
2023-04-19T20:03:55.793Z,100.00
2023-04-19T20:07:21.543Z,100.00
2023-04-19T20:09:15.056Z,100.00
2023-04-19T20:11:43.410Z,100.00
2023-04-19T20:14:11.849Z,100.00
2023-04-19T20:16:40.860Z,100.00
2023-04-19T20:19:11.689Z,100.00
2023-04-19T20:21:43.856Z,100.00
2023-04-19T20:24:12.122Z,100.00
2023-04-19T20:26:40.277Z,100.00
2023-04-19T20:29:08.931Z,100.00
2023-04-19T20:31:37.211Z,100.00
2023-04-19T20:34:05.610Z,100.00
2023-04-19T20:36:35.584Z,100.00
2023-04-19T20:39:09.852Z,100.00
2023-04-19T20:41:38.169Z,100.00
2023-04-19T20:44:06.631Z,100.00
2023-04-19T20:46:36.005Z,100.00
2023-04-19T20:49:04.136Z,100.00
2023-04-19T20:51:32.885Z,100.00
2023-04-19T20:54:02.564Z,100.00
2023-04-19T20:56:30.838Z,100.00
2023-04-19T20:58:59.085Z,100.00
2023-04-19T21:01:27.172Z,100.00
2023-04-19T21:03:55.669Z,100.00
2023-04-19T21:06:24.323Z,100.00
2023-04-19T21:08:52.472Z,100.00
2023-04-19T21:11:22.678Z,100.00
2023-04-19T21:13:50.759Z,100.00
2023-04-19T21:16:18.938Z,100.00
2023-04-19T21:18:47.098Z,100.00
2023-04-19T21:21:15.299Z,100.00
2023-04-19T21:23:43.388Z,100.00
2023-04-19T21:26:12.510Z,100.00
2023-04-19T21:28:41.959Z,100.00
2023-04-19T21:31:10.103Z,100.00
2023-04-19T21:33:40.325Z,100.00
2023-04-19T21:36:08.827Z,100.00
2023-04-19T21:38:36.954Z,100.00
2023-04-19T21:41:07.336Z,100.00
2023-04-19T21:43:35.760Z,100.00
2023-04-19T21:46:05.829Z,100.00
2023-04-19T21:48:34.011Z,100.00
2023-04-19T21:51:02.508Z,100.00
2023-04-19T21:53:49.171Z,100.00
2023-04-19T21:56:17.218Z,100.00
2023-04-19T21:58:45.341Z,100.00
2023-04-19T22:01:14.960Z,100.00
2023-04-19T22:03:43.399Z,100.00
2023-04-19T22:06:11.664Z,100.00
2023-04-19T22:08:39.791Z,100.00
2023-04-19T22:11:08.106Z,100.00
2023-04-19T22:13:37.463Z,100.00
2023-04-19T22:16:08.567Z,100.00
2023-04-19T22:18:38.320Z,100.00
2023-04-19T22:21:06.556Z,100.00
2023-04-19T22:23:35.675Z,100.00
2023-04-19T22:26:04.925Z,100.00
2023-04-19T22:28:33.740Z,100.00
2023-04-19T22:31:01.980Z,100.00
2023-04-19T22:33:30.199Z,100.00
2023-04-19T22:35:59.987Z,100.00
2023-04-19T22:38:28.098Z,100.00
2023-04-19T22:40:56.327Z,100.00
2023-04-19T22:43:24.579Z,100.00
2023-04-19T22:45:52.837Z,100.00
2023-04-19T22:48:21.015Z,100.00
2023-04-19T22:50:50.395Z,100.00
2023-04-19T22:53:19.961Z,100.00
2023-04-19T22:55:48.561Z,100.00
2023-04-19T22:58:16.747Z,100.00
2023-04-19T23:00:44.887Z,100.00
2023-04-19T23:03:13.016Z,100.00
2023-04-19T23:05:41.772Z,100.00
2023-04-19T23:08:10.078Z,100.00
2023-04-19T23:10:39.737Z,100.00
2023-04-19T23:13:10.271Z,100.00
2023-04-19T23:15:39.417Z,100.00
2023-04-19T23:18:07.789Z,100.00
2023-04-19T23:20:36.091Z,100.00
2023-04-19T23:23:05.292Z,100.00
2023-04-19T23:25:33.505Z,100.00
2023-04-19T23:28:03.048Z,100.00
2023-04-19T23:30:32.090Z,100.00
2023-04-19T23:33:00.324Z,100.00
2023-04-19T23:35:28.752Z,100.00
2023-04-19T23:37:56.885Z,100.00
2023-04-19T23:40:25.007Z,100.00
2023-04-19T23:42:53.180Z,100.00
2023-04-19T23:45:22.894Z,100.00
2023-04-19T23:47:51.421Z,100.00
2023-04-19T23:50:19.678Z,100.00
2023-04-19T23:52:47.854Z,100.00
2023-04-19T23:55:15.976Z,100.00
2023-04-19T23:57:44.147Z,100.00
